createdAt,value
2022-12-23T02:31:10.135Z,10.56
2022-12-23T02:32:10.771Z,15.59
2022-12-23T02:33:11.184Z,14.96
2022-12-23T02:34:10.568Z,14.78
2022-12-23T02:35:10.806Z,15.15
2022-12-23T02:36:10.429Z,14.19
2022-12-23T02:37:10.226Z,13.91
2022-12-23T02:38:10.438Z,13.04
2022-12-23T02:39:10.103Z,14.50
2022-12-23T02:40:10.317Z,13.96
2022-12-23T02:41:10.148Z,12.46
2022-12-23T02:42:10.220Z,12.34
2022-12-23T02:43:11.319Z,13.83
2022-12-23T02:44:09.910Z,13.24
2022-12-23T02:45:09.843Z,13.63
2022-12-23T02:46:10.083Z,14.15
2022-12-23T02:47:10.179Z,13.10
2022-12-23T02:48:10.432Z,12.64
2022-12-23T02:49:10.140Z,12.82
2022-12-23T02:50:09.572Z,12.31
2022-12-23T02:51:09.772Z,13.07
2022-12-23T02:52:09.505Z,12.54
2022-12-23T02:53:09.584Z,13.44
2022-12-23T02:54:09.624Z,12.77
2022-12-23T02:55:09.434Z,12.64
2022-12-23T02:56:10.173Z,12.88
2022-12-23T02:57:09.605Z,13.11
2022-12-23T02:58:09.376Z,12.89
2022-12-23T02:59:09.851Z,11.92
2022-12-23T03:00:09.272Z,12.69
2022-12-23T03:01:09.710Z,11.94
2022-12-23T03:02:09.446Z,13.46
2022-12-23T03:03:09.268Z,13.18
2022-12-23T03:04:10.965Z,12.91
2022-12-23T03:05:09.208Z,12.17
2022-12-23T03:06:09.080Z,12.26
2022-12-23T03:07:11.418Z,12.03
2022-12-23T03:08:09.813Z,11.21
2022-12-23T03:09:09.665Z,11.82
2022-12-23T03:10:09.542Z,11.43
2022-12-23T03:11:10.080Z,10.63
2022-12-23T03:12:09.138Z,10.66
2022-12-23T03:13:09.601Z,10.71
2022-12-23T03:14:09.296Z,11.47
2022-12-23T03:15:08.771Z,10.87
2022-12-23T03:16:09.202Z,11.79
2022-12-23T03:17:09.024Z,11.37
2022-12-23T03:18:08.890Z,11.12
2022-12-23T03:19:08.726Z,10.72
2022-12-23T03:20:08.576Z,10.81
2022-12-23T03:21:10.237Z,10.71
2022-12-23T03:22:08.814Z,10.78
2022-12-23T03:23:08.599Z,10.44
2022-12-23T03:24:08.765Z,9.96
2022-12-23T03:25:08.665Z,10.21
2022-12-23T03:26:08.923Z,10.69
2022-12-23T03:27:08.413Z,10.35
2022-12-23T03:28:10.180Z,9.22
2022-12-23T03:29:08.370Z,10.32
2022-12-23T03:30:08.593Z,9.83
2022-12-23T03:31:08.834Z,10.13
2022-12-23T03:32:08.938Z,10.98
2022-12-23T03:33:08.342Z,10.16
2022-12-23T03:34:08.421Z,10.43
2022-12-23T03:35:08.163Z,10.62
2022-12-23T03:36:07.958Z,10.99
2022-12-23T03:37:07.934Z,11.36
2022-12-23T03:38:07.916Z,10.13
2022-12-23T03:39:07.993Z,10.35
2022-12-23T03:40:07.865Z,10.47
2022-12-23T03:41:07.816Z,10.43
2022-12-23T03:42:07.915Z,10.22
2022-12-23T03:43:08.122Z,9.12
2022-12-23T03:44:07.801Z,10.05
2022-12-23T03:46:07.844Z,7.92
2022-12-23T03:47:07.899Z,7.00
2022-12-23T03:48:07.790Z,6.89
2022-12-23T03:49:07.543Z,6.99
2022-12-23T03:50:07.509Z,7.35
2022-12-23T03:51:07.471Z,7.98
2022-12-23T03:52:07.414Z,8.06
2022-12-23T03:53:07.418Z,8.77
2022-12-23T03:54:07.332Z,8.79
2022-12-23T03:55:07.329Z,8.91
2022-12-23T03:56:07.295Z,9.10
2022-12-23T03:57:07.264Z,7.99
2022-12-23T03:58:07.252Z,8.36
2022-12-23T03:59:07.125Z,8.75
2022-12-23T04:00:07.102Z,7.99
2022-12-23T04:01:07.060Z,7.76
2022-12-23T04:02:07.550Z,7.91
2022-12-23T04:03:06.974Z,7.03
2022-12-23T04:04:07.549Z,7.02
2022-12-23T04:05:06.925Z,8.06
2022-12-23T04:06:06.851Z,7.43
2022-12-23T04:07:06.839Z,7.47
2022-12-23T04:08:06.776Z,7.50
2022-12-23T04:09:06.733Z,7.42
2022-12-23T04:10:06.682Z,7.40
2022-12-23T04:11:06.620Z,7.93
2022-12-23T04:12:06.589Z,7.90
2022-12-23T04:13:06.579Z,7.69
2022-12-23T04:14:06.882Z,7.48
2022-12-23T04:15:12.617Z,8.02
2022-12-23T04:16:06.517Z,8.22
2022-12-23T04:17:06.707Z,7.97
2022-12-23T04:18:06.412Z,7.47
2022-12-23T04:19:06.570Z,8.42
2022-12-23T04:20:06.500Z,8.52
2022-12-23T04:21:06.533Z,8.02
2022-12-23T04:22:06.243Z,8.09
2022-12-23T04:23:06.213Z,8.27
2022-12-23T04:24:06.181Z,7.53
2022-12-23T04:25:06.168Z,7.42
2022-12-23T04:26:06.104Z,7.03
2022-12-23T04:27:06.340Z,7.84
2022-12-23T04:28:06.138Z,7.55
2022-12-23T04:29:06.004Z,6.83
2022-12-23T04:30:06.034Z,7.45
2022-12-23T04:31:06.017Z,7.02
2022-12-23T04:32:06.082Z,7.26
2022-12-23T04:33:05.864Z,7.65
2022-12-23T04:34:06.176Z,6.61
2022-12-23T04:35:05.753Z,7.35
2022-12-23T04:36:05.718Z,7.14
2022-12-23T04:37:05.725Z,6.75
2022-12-23T04:38:05.923Z,7.64
2022-12-23T04:39:05.694Z,7.34
2022-12-23T04:40:05.575Z,7.11
2022-12-23T04:41:05.536Z,6.99
2022-12-23T04:42:05.441Z,7.43
2022-12-23T04:43:05.369Z,8.36
2022-12-23T04:44:05.314Z,7.47
2022-12-23T04:45:05.282Z,6.39
2022-12-23T04:46:05.247Z,7.27
2022-12-23T04:47:05.383Z,6.73
2022-12-23T04:48:05.220Z,6.73
2022-12-23T04:49:05.175Z,7.50
2022-12-23T04:50:05.039Z,7.56
2022-12-23T04:51:04.996Z,8.04
2022-12-23T04:52:04.906Z,7.86
2022-12-23T04:53:05.019Z,6.87
2022-12-23T04:54:04.866Z,7.06
2022-12-23T04:55:05.022Z,7.01
2022-12-23T04:56:04.866Z,6.55
2022-12-23T04:57:04.831Z,6.70
2022-12-23T04:58:04.669Z,6.61
2022-12-23T04:59:04.652Z,6.92
2022-12-23T05:00:04.606Z,6.38
2022-12-23T05:01:04.700Z,7.12
2022-12-23T05:02:04.666Z,6.37
2022-12-23T05:03:04.605Z,6.90
2022-12-23T05:04:04.439Z,6.49
2022-12-23T05:05:04.381Z,6.32
2022-12-23T05:06:04.326Z,6.42
2022-12-23T05:07:04.430Z,6.55
2022-12-23T05:08:05.471Z,6.94
2022-12-23T05:09:04.562Z,5.92
2022-12-23T05:10:04.347Z,6.49
2022-12-23T05:11:06.256Z,5.71
2022-12-23T05:12:04.861Z,6.25
2022-12-23T05:13:04.691Z,6.49
2022-12-23T05:14:04.989Z,6.53
2022-12-23T05:15:04.265Z,6.23
2022-12-23T05:16:04.156Z,6.08
2022-12-23T05:17:07.719Z,6.08
2022-12-23T05:18:04.239Z,6.32
2022-12-23T05:19:03.937Z,5.92
2022-12-23T05:20:03.842Z,5.85
2022-12-23T05:21:03.936Z,6.46
2022-12-23T05:22:04.491Z,5.95
2022-12-23T05:23:03.678Z,6.19
2022-12-23T05:24:03.624Z,6.49
2022-12-23T05:25:03.449Z,6.10
2022-12-23T05:26:03.541Z,6.00
2022-12-23T05:27:03.578Z,6.02
2022-12-23T05:28:03.583Z,6.70
2022-12-23T05:29:03.280Z,6.74
2022-12-23T05:30:03.376Z,6.20
2022-12-23T05:31:03.689Z,5.97
2022-12-23T05:32:03.251Z,6.07
2022-12-23T05:33:03.057Z,5.59
2022-12-23T05:34:06.581Z,5.89
2022-12-23T05:35:02.938Z,5.60
2022-12-23T05:36:03.369Z,5.45
2022-12-23T05:37:03.191Z,5.00
2022-12-23T05:38:03.200Z,5.03
2022-12-23T05:39:03.045Z,5.30
2022-12-23T05:40:03.176Z,6.06
2022-12-23T05:41:02.713Z,6.35
2022-12-23T05:42:02.876Z,5.94
2022-12-23T05:43:02.786Z,6.82
2022-12-23T05:44:02.537Z,6.87
2022-12-23T05:45:02.692Z,6.22
2022-12-23T05:46:02.867Z,6.39
2022-12-23T05:47:02.454Z,6.02
2022-12-23T05:48:02.478Z,7.03
2022-12-23T05:49:02.612Z,6.14
2022-12-23T05:50:02.996Z,6.84
2022-12-23T05:51:02.376Z,6.80
2022-12-23T05:52:02.257Z,6.48
2022-12-23T05:53:02.807Z,6.82
2022-12-23T05:54:02.425Z,6.55
2022-12-23T05:55:02.301Z,6.71
2022-12-23T05:56:02.188Z,6.17
2022-12-23T05:57:02.151Z,6.25
2022-12-23T05:58:02.000Z,6.17
2022-12-23T05:59:02.274Z,6.05
2022-12-23T06:00:01.985Z,5.88
2022-12-23T06:01:02.603Z,6.02
2022-12-23T06:02:02.272Z,5.23
2022-12-23T06:03:02.083Z,4.60
2022-12-23T06:04:02.183Z,4.56
2022-12-23T06:05:01.639Z,5.61
2022-12-23T06:06:01.843Z,4.96
2022-12-23T06:07:01.584Z,5.09
2022-12-23T06:08:01.617Z,4.92
2022-12-23T06:09:01.758Z,5.78
2022-12-23T06:10:01.464Z,5.60
2022-12-23T06:11:01.378Z,5.39
2022-12-23T06:12:01.560Z,5.57
2022-12-23T06:13:01.809Z,5.71
2022-12-23T06:14:01.457Z,5.53
2022-12-23T06:15:01.117Z,6.35
2022-12-23T06:16:01.643Z,6.03
2022-12-23T06:17:01.423Z,6.20
2022-12-23T06:18:01.142Z,6.61
2022-12-23T06:19:01.763Z,6.86
2022-12-23T06:20:01.550Z,7.30
2022-12-23T06:21:00.903Z,6.93
2022-12-23T06:22:01.174Z,8.04
2022-12-23T06:23:01.397Z,8.01
2022-12-23T06:24:00.860Z,8.83
2022-12-23T06:25:00.807Z,9.20
2022-12-23T06:26:00.802Z,8.50
2022-12-23T06:27:01.676Z,8.21
2022-12-23T06:28:01.549Z,8.69
2022-12-23T06:29:01.068Z,8.41
2022-12-23T06:30:00.756Z,8.34
2022-12-23T06:31:01.763Z,8.85
2022-12-23T06:32:00.797Z,7.79
2022-12-23T06:33:00.689Z,7.84
2022-12-23T06:34:00.686Z,7.17
2022-12-23T06:35:00.560Z,7.06
2022-12-23T06:36:00.400Z,7.49
2022-12-23T06:37:00.323Z,7.25
2022-12-23T06:38:00.338Z,8.35
2022-12-23T06:39:00.460Z,7.78
2022-12-23T06:40:00.220Z,8.08
2022-12-23T06:41:00.241Z,7.24
2022-12-23T06:42:00.170Z,7.73
2022-12-23T06:43:00.243Z,7.20
2022-12-23T06:44:00.134Z,7.43
2022-12-23T06:45:00.011Z,7.52
2022-12-23T06:46:00.045Z,7.29
2022-12-23T06:46:59.954Z,6.68
2022-12-23T06:47:59.896Z,5.63
2022-12-23T06:48:59.849Z,5.97
2022-12-23T06:49:59.798Z,5.41
2022-12-23T06:50:59.738Z,5.29
2022-12-23T06:51:59.657Z,6.38
2022-12-23T06:52:59.639Z,6.46
2022-12-23T06:53:59.563Z,5.86
2022-12-23T06:54:59.485Z,5.73
2022-12-23T06:55:59.449Z,6.52
2022-12-23T06:56:59.366Z,6.14
2022-12-23T06:57:59.315Z,5.75
2022-12-23T06:58:59.345Z,5.16
2022-12-23T06:59:59.259Z,6.08
2022-12-23T07:00:59.167Z,6.00
2022-12-23T07:01:59.392Z,6.26
2022-12-23T07:02:59.272Z,6.51
2022-12-23T07:03:58.988Z,6.24
2022-12-23T07:04:58.908Z,7.20
2022-12-23T07:05:58.837Z,6.66
2022-12-23T07:06:58.782Z,6.69
2022-12-23T07:07:58.739Z,6.90
2022-12-23T07:08:58.743Z,7.10
2022-12-23T07:09:58.663Z,6.89
2022-12-23T07:10:58.600Z,8.88
2022-12-23T07:11:58.536Z,8.34
2022-12-23T07:12:58.499Z,7.75
2022-12-23T07:13:58.455Z,7.69
2022-12-23T07:14:58.469Z,7.48
2022-12-23T07:15:58.407Z,7.27
2022-12-23T07:16:58.494Z,6.71
2022-12-23T07:17:58.306Z,7.04
2022-12-23T07:18:58.286Z,7.04
2022-12-23T07:19:58.252Z,8.07
2022-12-23T07:20:58.216Z,7.23
2022-12-23T07:21:58.211Z,7.92
2022-12-23T07:22:58.153Z,7.97
2022-12-23T07:23:58.125Z,8.07
2022-12-23T07:24:58.011Z,7.18
2022-12-23T07:25:57.969Z,7.96
2022-12-23T07:26:57.960Z,6.90
2022-12-23T07:27:57.951Z,6.88
2022-12-23T07:28:57.827Z,6.87
2022-12-23T07:29:57.807Z,7.29
2022-12-23T07:30:57.876Z,8.00
2022-12-23T07:31:57.815Z,7.43
2022-12-23T07:32:57.661Z,8.50
2022-12-23T07:33:57.631Z,7.40
2022-12-23T07:34:57.603Z,8.22
2022-12-23T07:35:57.561Z,7.56
2022-12-23T07:36:57.495Z,8.17
2022-12-23T07:37:57.438Z,7.82
2022-12-23T07:38:57.385Z,7.86
2022-12-23T07:39:57.350Z,7.57
2022-12-23T07:40:57.312Z,8.12
2022-12-23T07:42:25.163Z,7.61
2022-12-23T07:42:57.208Z,7.83
2022-12-23T07:43:57.219Z,7.58
2022-12-23T07:44:57.156Z,7.92
2022-12-23T07:46:00.395Z,8.32
2022-12-23T07:46:57.099Z,8.30
2022-12-23T07:47:56.977Z,8.13
2022-12-23T07:48:56.943Z,7.93
2022-12-23T07:49:56.897Z,8.27
2022-12-23T07:50:56.915Z,8.81
2022-12-23T07:51:56.802Z,11.34
2022-12-23T07:52:56.747Z,10.48
2022-12-23T07:53:56.702Z,9.52
2022-12-23T07:54:56.611Z,9.20
2022-12-23T07:55:57.084Z,7.89
2022-12-23T07:56:56.531Z,7.58
2022-12-23T07:57:56.492Z,7.22
2022-12-23T07:58:56.414Z,6.60
2022-12-23T07:59:57.218Z,6.32
2022-12-23T08:00:56.362Z,6.23
2022-12-23T08:01:56.433Z,5.20
2022-12-23T08:02:56.339Z,5.34
2022-12-23T08:03:56.205Z,4.69
2022-12-23T08:04:56.206Z,4.48
2022-12-23T08:05:56.059Z,5.01
2022-12-23T08:06:56.406Z,6.01
2022-12-23T08:07:55.996Z,5.93
2022-12-23T08:08:56.002Z,6.61
2022-12-23T08:09:55.897Z,6.54
2022-12-23T08:10:55.874Z,6.75
2022-12-23T08:11:55.756Z,7.18
2022-12-23T08:12:57.721Z,7.01
2022-12-23T08:13:56.168Z,7.87
2022-12-23T08:14:55.800Z,8.12
2022-12-23T08:15:55.737Z,8.13
2022-12-23T08:16:55.635Z,8.98
2022-12-23T08:17:55.886Z,9.79
2022-12-23T08:18:55.490Z,12.65
2022-12-23T08:19:55.517Z,13.21
2022-12-23T08:20:55.548Z,12.12
2022-12-23T08:21:55.363Z,12.67
2022-12-23T08:22:55.355Z,15.18
2022-12-23T08:23:55.275Z,12.73
2022-12-23T08:24:55.636Z,9.23
2022-12-23T08:25:55.324Z,8.67
2022-12-23T08:26:55.480Z,8.32
2022-12-23T08:27:55.895Z,11.03
2022-12-23T08:28:55.012Z,10.30
2022-12-23T08:29:55.868Z,9.74
2022-12-23T08:30:54.969Z,8.08
2022-12-23T08:31:54.893Z,7.76
2022-12-23T08:32:54.992Z,8.40
2022-12-23T08:33:54.746Z,8.62
2022-12-23T08:34:55.011Z,8.94
2022-12-23T08:35:54.613Z,9.24
2022-12-23T08:36:54.753Z,10.18
2022-12-23T08:37:54.715Z,8.88
2022-12-23T08:38:54.696Z,8.95
2022-12-23T08:39:54.493Z,8.66
2022-12-23T08:40:54.616Z,8.62
2022-12-23T08:41:54.477Z,8.60
2022-12-23T08:42:54.215Z,8.13
2022-12-23T08:43:54.423Z,8.93
2022-12-23T08:44:54.213Z,8.25
2022-12-23T08:45:54.248Z,7.55
2022-12-23T08:46:53.985Z,7.67
2022-12-23T08:47:53.910Z,7.33
2022-12-23T08:48:53.840Z,7.23
2022-12-23T08:49:53.924Z,8.01
2022-12-23T08:50:53.915Z,7.72
2022-12-23T08:51:53.663Z,7.48
2022-12-23T08:52:53.680Z,7.40
2022-12-23T08:53:59.604Z,6.75
2022-12-23T08:54:53.514Z,7.06
2022-12-23T08:55:53.380Z,7.29
2022-12-23T08:56:53.609Z,8.21
2022-12-23T08:57:53.245Z,6.39
2022-12-23T08:58:53.815Z,7.43
2022-12-23T08:59:53.777Z,6.74
2022-12-23T09:00:53.858Z,8.04
2022-12-23T09:01:53.656Z,7.03
2022-12-23T09:02:55.134Z,8.42
2022-12-23T09:03:53.415Z,7.68
2022-12-23T09:04:53.711Z,8.20
2022-12-23T09:05:53.337Z,7.94
2022-12-23T09:06:52.874Z,7.78
2022-12-23T09:07:53.381Z,7.72
2022-12-23T09:08:52.622Z,8.27
2022-12-23T09:09:52.579Z,9.10
2022-12-23T09:10:52.858Z,8.36
2022-12-23T09:11:52.488Z,8.68
2022-12-23T09:12:52.836Z,8.36
2022-12-23T09:13:52.430Z,8.24
2022-12-23T09:14:52.169Z,8.43
2022-12-23T09:15:52.062Z,8.08
2022-12-23T09:16:52.285Z,7.87
2022-12-23T09:17:52.212Z,6.85
2022-12-23T09:18:51.984Z,7.62
2022-12-23T09:19:53.170Z,7.80
2022-12-23T09:20:52.960Z,8.29
2022-12-23T09:21:52.540Z,7.59
2022-12-23T09:22:52.372Z,7.52
2022-12-23T09:23:51.752Z,7.45
2022-12-23T09:24:52.136Z,6.80
2022-12-23T09:25:52.735Z,7.89
2022-12-23T09:26:52.017Z,7.13
2022-12-23T09:27:52.644Z,7.46
2022-12-23T09:28:51.846Z,7.69
2022-12-23T09:29:51.933Z,7.06
2022-12-23T09:30:51.448Z,7.07
2022-12-23T09:31:51.481Z,6.51
2022-12-23T09:32:51.670Z,6.35
2022-12-23T09:33:51.441Z,7.47
2022-12-23T09:34:51.149Z,7.10
2022-12-23T09:35:51.139Z,7.31
2022-12-23T09:36:55.271Z,6.72
2022-12-23T09:37:50.675Z,7.18
2022-12-23T09:38:50.650Z,7.37
2022-12-23T09:39:50.600Z,7.01
2022-12-23T09:40:50.466Z,5.98
2022-12-23T09:41:50.401Z,6.37
2022-12-23T09:42:50.330Z,5.72
2022-12-23T09:43:50.204Z,5.84
2022-12-23T09:44:50.165Z,5.59
2022-12-23T09:45:50.110Z,6.09
2022-12-23T09:46:50.037Z,5.16
2022-12-23T09:47:49.924Z,5.13
2022-12-23T09:48:49.857Z,5.64
2022-12-23T09:49:49.809Z,5.68
2022-12-23T09:50:49.687Z,5.73
2022-12-23T09:51:49.659Z,6.20
2022-12-23T09:52:49.522Z,6.05
2022-12-23T09:53:49.428Z,5.64
2022-12-23T09:54:49.308Z,6.22
2022-12-23T09:55:49.312Z,6.28
2022-12-23T09:56:49.122Z,6.09
2022-12-23T09:57:49.095Z,6.05
2022-12-23T09:58:48.966Z,7.00
2022-12-23T09:59:48.894Z,6.46
2022-12-23T10:00:48.758Z,7.00
2022-12-23T10:01:48.899Z,6.24
2022-12-23T10:02:48.796Z,5.61
2022-12-23T10:03:48.768Z,6.55
2022-12-23T10:04:48.368Z,7.18
2022-12-23T10:05:48.353Z,6.47
2022-12-23T10:06:48.212Z,7.08
2022-12-23T10:07:48.153Z,5.89
2022-12-23T10:08:48.113Z,6.26
2022-12-23T10:09:48.027Z,5.88
2022-12-23T10:10:47.927Z,6.04
2022-12-23T10:11:47.862Z,5.76
2022-12-23T10:12:47.719Z,5.66
2022-12-23T10:13:47.743Z,5.82
2022-12-23T10:14:47.612Z,5.69
2022-12-23T10:15:47.618Z,5.94
2022-12-23T10:16:47.575Z,5.54
2022-12-23T10:17:47.395Z,5.95
2022-12-23T10:18:47.369Z,5.77
2022-12-23T10:19:47.288Z,6.16
2022-12-23T10:20:47.229Z,6.46
2022-12-23T10:21:48.064Z,6.56
2022-12-23T10:22:47.090Z,5.82
2022-12-23T10:23:47.009Z,6.26
2022-12-23T10:24:46.970Z,5.70
2022-12-23T10:25:46.898Z,5.42
2022-12-23T10:26:46.749Z,5.69
2022-12-23T10:27:46.765Z,5.53
2022-12-23T10:28:46.619Z,5.83
2022-12-23T10:29:46.534Z,5.63
2022-12-23T10:31:46.441Z,4.87
2022-12-23T10:32:46.336Z,4.69
2022-12-23T10:33:46.160Z,4.88
2022-12-23T10:34:46.012Z,5.59
2022-12-23T10:35:45.982Z,5.07
2022-12-23T10:36:45.900Z,5.30
2022-12-23T10:37:45.760Z,5.73
2022-12-23T10:38:45.662Z,5.54
2022-12-23T10:39:45.622Z,5.65
2022-12-23T10:40:45.561Z,6.48
2022-12-23T10:41:45.447Z,6.37
2022-12-23T10:42:45.319Z,6.37
2022-12-23T10:43:45.329Z,6.73
2022-12-23T10:44:45.248Z,6.80
2022-12-23T10:45:45.048Z,7.53
2022-12-23T10:46:45.070Z,6.47
2022-12-23T10:47:44.968Z,6.68
2022-12-23T10:48:44.776Z,6.02
2022-12-23T10:49:44.698Z,6.43
2022-12-23T10:50:44.614Z,6.49
2022-12-23T10:51:44.516Z,6.83
2022-12-23T10:52:44.468Z,6.36
2022-12-23T10:53:44.383Z,6.88
2022-12-23T10:54:44.279Z,6.22
2022-12-23T10:55:44.148Z,6.75
2022-12-23T10:56:44.037Z,5.92
2022-12-23T10:57:43.914Z,5.97
2022-12-23T10:58:43.838Z,6.36
2022-12-23T10:59:43.808Z,6.55
2022-12-23T11:00:43.696Z,6.58
2022-12-23T11:01:43.750Z,6.38
2022-12-23T12:46:34.207Z,11.11
2022-12-23T12:47:53.297Z,11.00
2022-12-23T12:48:33.920Z,11.38
2022-12-23T12:49:33.819Z,11.46
2022-12-23T12:50:33.744Z,12.43
2022-12-23T12:51:33.734Z,11.71
2022-12-23T12:52:33.594Z,11.96
2022-12-23T14:10:25.603Z,11.97
2022-12-23T14:11:25.464Z,12.56
2022-12-23T14:12:25.399Z,11.75
2022-12-23T14:13:25.364Z,11.76
2022-12-23T14:14:25.263Z,11.22
2022-12-23T14:15:25.213Z,10.62
2022-12-23T14:16:25.085Z,10.78
2022-12-23T14:17:24.868Z,11.41
2022-12-23T14:18:24.780Z,11.71
2022-12-23T14:19:24.760Z,11.16
2022-12-23T14:20:24.579Z,12.19
2022-12-23T14:21:24.498Z,12.22
2022-12-23T14:22:24.380Z,12.07
2022-12-23T14:23:25.242Z,11.55
2022-12-23T14:24:24.160Z,11.57
2022-12-23T14:25:24.106Z,12.04
2022-12-23T14:26:24.007Z,11.13
2022-12-23T14:27:23.905Z,11.90
2022-12-23T14:28:23.928Z,12.86
2022-12-23T14:29:23.963Z,12.67
2022-12-23T14:30:23.642Z,12.57
2022-12-23T14:35:23.092Z,11.88
2022-12-23T14:36:23.061Z,10.64
2022-12-23T14:37:22.994Z,12.01
2022-12-23T14:38:22.724Z,10.62
2022-12-23T14:39:22.666Z,12.75
2022-12-23T14:40:22.542Z,10.77
2022-12-23T14:41:22.483Z,10.56
2022-12-23T14:42:22.372Z,10.21
2022-12-23T14:43:22.556Z,10.50
2022-12-23T14:44:22.257Z,11.01
2022-12-23T14:45:22.080Z,10.88
2022-12-23T14:46:22.255Z,12.23
2022-12-23T14:47:22.743Z,13.40
2022-12-23T14:48:21.929Z,12.59
2022-12-23T14:49:39.571Z,13.32
2022-12-23T14:50:21.639Z,13.59
2022-12-23T14:51:21.484Z,13.16
2022-12-23T14:52:21.394Z,12.51
2022-12-23T14:53:21.390Z,12.95
2022-12-23T14:54:21.284Z,13.20
2022-12-23T14:55:30.286Z,13.47
2022-12-23T14:56:21.023Z,12.16
2022-12-23T14:57:20.928Z,12.57
2022-12-23T14:58:20.804Z,12.59
2022-12-23T14:59:20.734Z,11.69
2022-12-23T15:00:20.718Z,11.91
2022-12-23T15:01:20.751Z,12.21
2022-12-23T15:02:20.554Z,11.40
2022-12-23T15:03:20.569Z,10.63
2022-12-23T15:04:20.277Z,12.38
2022-12-23T15:05:20.305Z,13.27
2022-12-23T15:06:20.191Z,11.62
2022-12-23T15:07:20.173Z,13.25
2022-12-23T15:08:19.885Z,12.95
2022-12-23T15:09:19.896Z,12.84
2022-12-23T15:10:19.785Z,13.57
2022-12-23T15:11:19.607Z,13.05
2022-12-23T15:12:19.656Z,12.35
2022-12-23T15:13:20.677Z,12.00
2022-12-23T15:14:19.562Z,12.43
2022-12-23T15:15:19.389Z,11.39
2022-12-23T15:16:19.551Z,11.81
2022-12-23T15:17:19.224Z,11.64
2022-12-23T15:18:19.107Z,11.14
2022-12-23T15:19:19.099Z,11.64
2022-12-23T15:20:18.993Z,12.61
2022-12-23T15:21:18.849Z,12.45
2022-12-23T15:22:25.299Z,12.05
2022-12-23T15:23:18.847Z,12.55
2022-12-23T15:24:18.648Z,12.64
2022-12-23T15:25:18.422Z,13.16
2022-12-23T15:26:18.342Z,13.63
2022-12-23T15:27:27.269Z,12.89
2022-12-23T15:28:18.295Z,12.67
2022-12-23T15:29:18.182Z,12.71
2022-12-23T15:30:18.055Z,13.50
2022-12-23T15:31:17.927Z,13.82
2022-12-23T15:32:17.940Z,13.45
2022-12-23T15:33:52.058Z,13.02
2022-12-23T15:34:17.849Z,14.22
2022-12-23T15:35:17.732Z,14.64
2022-12-23T15:36:17.576Z,14.32
2022-12-23T15:37:17.366Z,14.14
2022-12-23T15:38:17.332Z,15.79
2022-12-23T15:39:17.271Z,15.73
2022-12-23T15:40:17.120Z,14.83
2022-12-23T15:41:17.065Z,15.90
2022-12-23T15:42:16.951Z,16.28
2022-12-23T15:43:16.843Z,15.36
2022-12-23T15:44:16.744Z,14.97
2022-12-23T15:45:16.643Z,16.40
2022-12-23T15:46:16.655Z,15.57
2022-12-23T15:47:16.529Z,15.88
2022-12-23T15:48:16.388Z,14.16
2022-12-23T15:49:16.385Z,14.77
2022-12-23T15:50:16.302Z,14.98
2022-12-23T15:51:30.535Z,15.39
2022-12-23T15:52:20.519Z,14.20
2022-12-23T15:53:16.161Z,15.64
2022-12-23T15:54:16.231Z,15.00
2022-12-23T15:55:16.096Z,16.45
2022-12-23T15:56:15.927Z,14.72
2022-12-23T15:57:15.855Z,14.13
2022-12-23T15:58:15.853Z,15.25
2022-12-23T15:59:15.744Z,15.20
2022-12-23T16:00:15.586Z,15.45
2022-12-23T16:01:15.471Z,15.22
2022-12-23T16:02:49.533Z,16.00
2022-12-23T16:03:16.170Z,17.13
2022-12-23T16:04:15.328Z,16.56
2022-12-23T16:05:15.168Z,15.54
2022-12-23T16:06:15.124Z,15.66
2022-12-23T16:07:15.007Z,14.58
2022-12-23T16:08:15.043Z,15.59
2022-12-23T16:09:14.890Z,15.14
2022-12-23T16:10:14.805Z,14.95
2022-12-23T16:11:14.761Z,16.35
2022-12-23T16:12:14.596Z,17.34
2022-12-23T16:13:14.516Z,15.18
2022-12-23T16:14:14.464Z,17.08
2022-12-23T16:15:14.331Z,16.99
2022-12-23T16:16:15.268Z,17.45
2022-12-23T16:17:14.253Z,17.15
2022-12-23T16:18:14.239Z,16.56
2022-12-23T16:19:14.024Z,19.19
2022-12-23T16:20:13.975Z,18.62
2022-12-23T16:21:13.859Z,19.09
2022-12-23T16:22:13.782Z,19.14
2022-12-23T16:23:13.770Z,18.49
2022-12-23T16:24:13.645Z,18.94
2022-12-23T16:25:13.514Z,18.52
2022-12-23T16:26:13.420Z,18.39
2022-12-23T16:27:13.344Z,18.26
2022-12-23T16:28:13.316Z,18.25
2022-12-23T16:29:13.238Z,17.80
2022-12-23T16:30:13.104Z,18.19
2022-12-23T16:31:13.097Z,17.87
2022-12-23T16:32:13.050Z,17.08
2022-12-23T16:33:12.851Z,20.33
2022-12-23T16:34:12.742Z,17.91
2022-12-23T16:35:12.689Z,19.22
2022-12-23T16:36:12.608Z,18.24
2022-12-23T16:37:12.544Z,19.50
2022-12-23T16:38:12.407Z,20.28
2022-12-23T16:39:12.384Z,19.92
2022-12-23T16:40:12.220Z,20.24
2022-12-23T16:41:12.204Z,20.95
2022-12-23T16:42:12.197Z,19.48
2022-12-23T16:43:12.035Z,18.53
2022-12-23T16:44:11.927Z,19.60
2022-12-23T16:45:11.794Z,19.69
2022-12-23T16:46:11.947Z,19.89
2022-12-23T16:47:11.665Z,20.67
2022-12-23T16:48:11.636Z,20.16
2022-12-23T16:49:11.471Z,19.60
2022-12-23T16:50:11.358Z,18.39
2022-12-23T16:51:11.255Z,19.24
2022-12-23T16:52:11.203Z,18.57
2022-12-23T16:53:11.072Z,20.87
2022-12-23T16:54:11.000Z,19.99
2022-12-23T16:55:10.925Z,19.90
2022-12-23T16:56:10.815Z,20.11
2022-12-23T16:57:10.788Z,19.24
2022-12-23T16:58:10.647Z,18.64
2022-12-23T16:59:10.558Z,18.38
2022-12-23T17:00:10.486Z,20.30
2022-12-23T17:01:10.486Z,19.32
2022-12-23T17:02:10.405Z,18.65
2022-12-23T17:03:10.239Z,18.21
2022-12-23T17:04:10.187Z,20.14
2022-12-23T17:05:10.060Z,19.08
2022-12-23T17:06:09.980Z,19.68
2022-12-23T17:07:09.919Z,19.26
2022-12-23T17:08:09.928Z,19.02
2022-12-23T17:09:09.813Z,18.30
2022-12-23T17:10:09.716Z,19.55
2022-12-23T17:11:09.665Z,21.15
2022-12-23T17:12:09.543Z,20.17
2022-12-23T17:13:09.458Z,19.59
2022-12-23T17:14:13.693Z,19.64
2022-12-23T17:15:09.413Z,20.96
2022-12-23T17:16:09.897Z,21.95
2022-12-23T17:17:09.154Z,21.05
2022-12-23T17:18:08.989Z,21.76
2022-12-23T17:19:08.942Z,21.42
2022-12-23T17:20:08.943Z,21.63
2022-12-23T17:21:08.759Z,22.79
2022-12-23T17:22:08.721Z,23.56
2022-12-23T17:23:08.663Z,22.57
2022-12-23T17:24:08.583Z,22.85
2022-12-23T17:25:08.458Z,22.16
2022-12-23T17:26:08.534Z,22.90
2022-12-23T17:27:08.382Z,23.07
2022-12-23T17:28:08.287Z,23.42
2022-12-23T17:29:08.295Z,21.85
2022-12-23T17:30:08.107Z,19.79
2022-12-23T17:31:14.203Z,19.04
2022-12-23T17:32:08.035Z,18.89
2022-12-23T17:33:07.810Z,18.11
2022-12-23T17:34:07.774Z,17.82
2022-12-23T17:35:07.718Z,19.09
2022-12-23T17:36:07.676Z,16.38
2022-12-23T17:37:07.602Z,15.84
2022-12-23T17:38:07.698Z,17.06
2022-12-23T17:39:07.521Z,16.22
2022-12-23T17:40:07.336Z,16.67
2022-12-23T17:41:07.211Z,17.46
2022-12-23T17:42:07.437Z,16.45
2022-12-23T17:43:07.007Z,16.37
2022-12-23T17:44:07.096Z,16.43
2022-12-23T17:45:07.350Z,17.31
2022-12-23T17:46:06.844Z,17.56
2022-12-23T17:47:06.652Z,17.68
2022-12-23T17:48:06.685Z,17.07
2022-12-23T17:49:06.777Z,16.75
2022-12-23T17:50:06.441Z,17.35
2022-12-23T17:51:06.475Z,17.14
2022-12-23T17:52:06.433Z,19.02
2022-12-23T17:53:06.264Z,17.93
2022-12-23T17:54:06.104Z,19.14
2022-12-23T17:55:06.073Z,19.82
2022-12-23T17:56:05.967Z,19.86
2022-12-23T17:57:06.072Z,19.35
2022-12-23T17:58:05.722Z,20.74
2022-12-23T17:59:05.722Z,18.74
2022-12-23T18:00:05.679Z,20.27
2022-12-23T18:01:06.080Z,21.71
2022-12-23T18:02:05.457Z,22.08
2022-12-23T18:03:05.332Z,24.36
2022-12-23T18:04:05.218Z,30.11
2022-12-23T18:05:05.427Z,22.59
2022-12-23T18:06:05.341Z,20.19
2022-12-23T18:07:05.006Z,21.44
2022-12-23T18:08:04.946Z,20.82
2022-12-23T18:09:05.338Z,20.57
2022-12-23T18:10:05.120Z,23.04
2022-12-23T18:11:05.201Z,57.70
2022-12-23T18:12:04.867Z,56.52
2022-12-23T18:13:04.734Z,28.40
2022-12-23T18:14:04.640Z,23.16
2022-12-23T18:15:04.693Z,27.51
2022-12-23T18:16:04.490Z,26.39
2022-12-23T18:17:04.292Z,22.29
2022-12-23T18:18:04.361Z,21.44
2022-12-23T18:19:04.356Z,18.45
2022-12-23T18:20:04.227Z,17.55
2022-12-23T18:21:04.090Z,14.78
2022-12-23T18:22:04.229Z,17.23
2022-12-23T18:23:04.212Z,16.36
2022-12-23T18:24:03.981Z,19.89
2022-12-23T18:25:03.982Z,27.34
2022-12-23T18:26:03.808Z,46.18
2022-12-23T18:27:03.758Z,47.76
2022-12-23T18:28:03.684Z,89.35
2022-12-23T18:29:03.867Z,56.85
2022-12-23T18:30:03.399Z,25.56
2022-12-23T18:31:03.380Z,20.32
2022-12-23T18:32:03.237Z,19.87
2022-12-23T18:33:03.235Z,18.74
2022-12-23T18:34:03.073Z,19.10
2022-12-23T18:35:03.012Z,18.99
2022-12-23T18:36:03.106Z,18.41
2022-12-23T18:37:02.858Z,19.50
2022-12-23T18:38:02.758Z,19.11
2022-12-23T18:39:02.734Z,19.05
2022-12-23T18:40:02.588Z,18.79
2022-12-23T18:41:02.553Z,17.13
2022-12-23T18:42:02.559Z,17.39
2022-12-23T18:43:02.367Z,17.45